Time;durP1;ratioP1;P1;durP2;ratioP2;P2;SDS_P1;SDS_P2;PMS_P1;PMS_P2;Temp;Humidity;BMP_temperature;BMP_pressure;BME280_temperature;BME280_humidity;BME280_pressure;Samples;Min_cycle;Max_cycle;Signal;HPM_P1;HPM_P2
2022/09/11 00:00:35;;;;;;;8.70;0.40;;;14.30;99.90;;;;;;5087979;28;20132;-85
2022/09/11 00:03:00;;;;;;;0.40;0.28;;;14.30;99.90;;;;;;5091405;28;20114;-85
2022/09/11 00:05:26;;;;;;;;;;;14.30;99.90;;;;;;5100086;28;20030;-85
2022/09/11 00:07:52;;;;;;;1.52;0.38;;;14.30;99.90;;;;;;5112263;28;19946;-85
2022/09/11 00:10:18;;;;;;;;;;;14.30;99.90;;;;;;5110302;28;20063;-86
2022/09/11 00:12:44;;;;;;;2.13;0.40;;;14.20;99.90;;;;;;5110280;28;19908;-85
2022/09/11 00:15:09;;;;;;;;;;;14.20;99.90;;;;;;5110948;28;20118;-85
2022/09/11 00:17:36;;;;;;;3.13;0.30;;;14.20;99.90;;;;;;5111726;28;19904;-86
2022/09/11 00:20:03;;;;;;;2.30;0.32;;;14.10;99.90;;;;;;5110395;28;20020;-86
2022/09/11 00:22:29;;;;;;;4.50;0.30;;;14.10;99.90;;;;;;5110477;28;20036;-85
2022/09/11 00:24:54;;;;;;;;;;;14.10;99.90;;;;;;5110936;28;20096;-85
2022/09/11 00:27:20;;;;;;;2.25;0.30;;;14.20;99.90;;;;;;5109957;28;19908;-85
2022/09/11 00:29:45;;;;;;;;;;;14.20;99.90;;;;;;5110862;28;20027;-85
2022/09/11 00:32:11;;;;;;;3.75;0.30;;;14.20;99.90;;;;;;5108476;28;19908;-86
2022/09/11 00:34:38;;;;;;;;;;;14.10;99.90;;;;;;5108673;28;20038;-86
2022/09/11 00:37:04;;;;;;;0.60;0.30;;;14.10;99.90;;;;;;5124288;28;19936;-87
2022/09/11 00:39:29;;;;;;;5.88;0.30;;;14.10;99.90;;;;;;5128374;28;20273;-86
2022/09/11 00:41:55;;;;;;;;;;;14.00;99.90;;;;;;5122280;28;20096;-86
2022/09/11 00:44:24;;;;;;;3.97;0.40;;;13.90;99.90;;;;;;5110764;28;19904;-86
2022/09/11 00:46:53;;;;;;;4.10;0.38;;;13.90;99.90;;;;;;5110301;28;20093;-86
2022/09/11 00:49:40;;;;;;;2.58;0.73;;;13.80;99.90;;;;;;5110202;28;20084;-86
2022/09/11 00:52:16;;;;;;;0.93;0.28;;;13.80;99.90;;;;;;5109472;28;20456;-86
2022/09/11 00:54:50;;;;;;;3.92;0.30;;;13.80;99.90;;;;;;5109188;28;20051;-85
2022/09/11 00:57:19;;;;;;;3.33;0.30;;;13.70;99.90;;;;;;5109660;28;20031;-85
2022/09/11 00:59:47;;;;;;;4.75;0.30;;;13.70;99.90;;;;;;5109520;28;20024;-85
2022/09/11 01:02:18;;;;;;;1.40;0.38;;;13.70;99.90;;;;;;5095218;28;20020;-85
2022/09/11 01:04:44;;;;;;;1.98;0.45;;;13.70;99.90;;;;;;5090334;28;20028;-86
2022/09/11 01:07:10;;;;;;;;;;;13.80;99.90;;;;;;5090329;28;20026;-86
2022/09/11 01:09:35;;;;;;;1.00;0.30;;;13.70;99.90;;;;;;5099833;28;19908;-86
2022/09/11 01:12:20;;;;;;;;;;;13.80;99.90;;;;;;5109668;28;20028;-84
2022/09/11 01:14:52;;;;;;;5.57;0.40;;;13.80;99.90;;;;;;5108286;28;20438;-86
2022/09/11 01:17:27;;;;;;;3.75;0.40;;;13.80;99.90;;;;;;5110038;28;20229;-85
2022/09/11 01:20:19;;;;;;;2.08;0.30;;;13.90;99.90;;;;;;5110097;28;20032;-86
2022/09/11 01:23:01;;;;;;;2.95;0.35;;;14.10;99.90;;;;;;5112177;28;20055;-84
2022/09/11 01:25:48;;;;;;;2.90;0.43;;;14.10;99.90;;;;;;5115376;28;20015;-84
2022/09/11 01:28:33;;;;;;;4.07;0.77;;;14.20;99.90;;;;;;5114114;28;20031;-85
2022/09/11 01:31:04;;;;;;;3.40;0.32;;;14.40;99.90;;;;;;5113819;28;20396;-85
2022/09/11 01:33:54;;;;;;;2.03;0.40;;;14.60;99.90;;;;;;5114551;28;20605;-86
2022/09/11 01:36:24;;;;;;;3.35;0.85;;;14.80;99.90;;;;;;5113461;28;20160;-84
2022/09/11 01:38:55;;;;;;;2.97;0.47;;;15.00;99.90;;;;;;5113722;28;20405;-86
2022/09/11 01:41:44;;;;;;;1.13;0.30;;;15.10;99.90;;;;;;5111363;28;20024;-86
2022/09/11 01:44:35;;;;;;;2.58;0.47;;;15.10;99.90;;;;;;5113361;28;20027;-86
2022/09/11 01:47:03;;;;;;;0.65;0.40;;;15.00;99.90;;;;;;5110503;28;20419;-85
2022/09/11 01:49:41;;;;;;;1.42;0.30;;;15.00;99.90;;;;;;5092805;28;20174;-85
2022/09/11 01:52:12;;;;;;;6.63;0.30;;;14.90;99.90;;;;;;5092690;28;20039;-85
2022/09/11 01:54:45;;;;;;;2.25;0.40;;;14.80;99.90;;;;;;5109625;28;20040;-86
2022/09/11 01:57:18;;;;;;;3.30;0.45;;;14.80;99.90;;;;;;5092842;28;20039;-85
2022/09/11 01:59:48;;;;;;;2.33;0.30;;;14.70;99.90;;;;;;5092944;28;20024;-86
2022/09/11 02:02:21;;;;;;;1.17;0.43;;;14.70;99.90;;;;;;5093629;28;20036;-85
2022/09/11 02:05:05;;;;;;;2.92;0.63;;;14.60;99.90;;;;;;5092671;28;20023;-86
2022/09/11 02:07:38;;;;;;;2.47;0.65;;;14.50;99.90;;;;;;5088137;28;20496;-85
2022/09/11 02:10:25;;;;;;;3.53;0.40;;;14.40;99.90;;;;;;5106488;28;20016;-86
2022/09/11 02:13:13;;;;;;;5.22;0.30;;;14.30;99.90;;;;;;5112871;28;20027;-85
2022/09/11 02:15:45;;;;;;;1.75;0.40;;;14.10;99.90;;;;;;5113440;28;20511;-85
2022/09/11 02:18:34;;;;;;;1.27;0.40;;;14.00;99.90;;;;;;5111956;28;20552;-85
2022/09/11 02:21:00;;;;;;;4.47;0.60;;;13.90;99.90;;;;;;5112489;28;20051;-85
2022/09/11 02:23:26;;;;;;;0.70;0.40;;;13.80;99.90;;;;;;5112428;28;20023;-85
2022/09/11 02:25:51;;;;;;;;;;;13.70;99.90;;;;;;5113115;28;20476;-85
2022/09/11 02:28:17;;;;;;;4.53;1.25;;;13.60;99.90;;;;;;5113966;28;19911;-85
2022/09/11 02:30:44;;;;;;;;;;;13.60;99.90;;;;;;5113725;28;20047;-86
2022/09/11 02:33:31;;;;;;;2.63;0.37;;;13.50;99.90;;;;;;5112352;28;19967;-86
2022/09/11 02:36:08;;;;;;;1.10;1.00;;;13.50;99.90;;;;;;5114775;28;20035;-85
2022/09/11 02:39:05;;;;;;;1.40;0.35;;;13.50;99.90;;;;;;5094469;28;20020;-86
2022/09/11 02:41:40;;;;;;;0.95;0.40;;;13.40;99.90;;;;;;5104417;28;20031;-85
2022/09/11 02:44:29;;;;;;;5.05;0.40;;;13.40;99.90;;;;;;5092762;28;20294;-85
2022/09/11 02:47:07;;;;;;;1.85;0.40;;;13.40;99.90;;;;;;5091743;28;20305;-85
2022/09/11 02:49:58;;;;;;;1.85;0.40;;;13.50;99.90;;;;;;5091475;28;20035;-85
2022/09/11 02:52:39;;;;;;;3.63;0.60;;;13.60;99.90;;;;;;5090986;28;20020;-86
2022/09/11 02:55:31;;;;;;;3.90;0.40;;;13.70;99.90;;;;;;5091255;28;20083;-85
2022/09/11 02:58:21;;;;;;;1.02;0.43;;;13.80;99.90;;;;;;5076816;28;20119;-84
2022/09/11 03:00:47;;;;;;;1.30;0.32;;;13.70;99.90;;;;;;5091080;28;20484;-85
2022/09/11 03:03:13;;;;;;;;;;;13.60;99.90;;;;;;5109127;28;20124;-85
2022/09/11 03:05:39;;;;;;;4.80;0.57;;;13.50;99.90;;;;;;5107432;28;19946;-86
2022/09/11 03:08:06;;;;;;;;;;;13.40;99.90;;;;;;5091806;28;20035;-85
2022/09/11 03:10:33;;;;;;;6.85;0.70;;;13.40;99.90;;;;;;5089779;28;19915;-84
2022/09/11 03:12:58;;;;;;;2.50;0.43;;;13.40;99.90;;;;;;5096282;28;20035;-86
2022/09/11 03:15:24;;;;;;;;;;;13.40;99.90;;;;;;5111618;28;20036;-85
2022/09/11 03:17:50;;;;;;;1.38;0.47;;;13.50;99.90;;;;;;5111392;28;19908;-86
2022/09/11 03:20:18;;;;;;;2.92;0.50;;;13.50;99.90;;;;;;5112601;28;20027;-86
2022/09/11 03:22:43;;;;;;;2.58;0.50;;;13.50;99.90;;;;;;5108755;28;20450;-85
2022/09/11 03:25:10;;;;;;;;;;;13.50;99.90;;;;;;5111000;28;20117;-84
2022/09/11 03:27:40;;;;;;;0.60;0.35;;;13.50;99.90;;;;;;5110570;28;19912;-84
2022/09/11 03:30:06;;;;;;;2.15;0.60;;;13.50;99.90;;;;;;5093473;28;20119;-86
2022/09/11 03:32:32;;;;;;;4.95;0.70;;;13.50;99.90;;;;;;5090018;28;20028;-85
2022/09/11 03:34:57;;;;;;;;;;;13.50;99.90;;;;;;5107623;28;20096;-85
2022/09/11 03:37:25;;;;;;;4.28;0.50;;;13.40;99.90;;;;;;5091239;28;19998;-85
2022/09/11 03:39:53;;;;;;;3.58;0.80;;;13.40;99.90;;;;;;5091570;28;20024;-86
2022/09/11 03:42:19;;;;;;;5.50;1.60;;;13.40;99.90;;;;;;5090589;28;20027;-85
2022/09/11 03:44:45;;;;;;;4.43;0.88;;;13.50;99.90;;;;;;5095696;28;20277;-84
2022/09/11 03:47:11;;;;;;;;;;;13.40;99.90;;;;;;5111805;28;20019;-84
2022/09/11 03:49:38;;;;;;;1.75;0.60;;;13.40;99.90;;;;;;5110378;28;19910;-85
2022/09/11 03:52:04;;;;;;;1.58;0.60;;;13.40;99.90;;;;;;5110419;28;20053;-85
2022/09/11 03:54:30;;;;;;;2.17;0.93;;;13.40;99.90;;;;;;5090991;28;20056;-86
2022/09/11 03:56:57;;;;;;;2.28;1.00;;;13.40;99.90;;;;;;5090407;28;20030;-85
2022/09/11 03:59:24;;;;;;;6.47;0.85;;;13.40;99.90;;;;;;5090305;28;20097;-85
2022/09/11 04:01:50;;;;;;;7.55;1.80;;;13.40;99.90;;;;;;5090114;28;20023;-86
2022/09/11 04:04:16;;;;;;;3.40;1.25;;;13.40;99.90;;;;;;5090281;28;20028;-85
2022/09/11 04:06:42;;;;;;;;;;;13.30;99.90;;;;;;5110812;28;20543;-85
2022/09/11 04:09:08;;;;;;;3.58;1.20;;;13.30;99.90;;;;;;5110398;28;20006;-85
2022/09/11 04:11:37;;;;;;;6.35;1.30;;;13.20;99.90;;;;;;5110300;28;20115;-84
2022/09/11 04:14:03;;;;;;;4.18;1.25;;;13.20;99.90;;;;;;5099827;28;20028;-85
2022/09/11 04:16:31;;;;;;;2.35;0.90;;;13.10;99.90;;;;;;5102912;28;20038;-83
2022/09/11 04:18:59;;;;;;;5.57;1.58;;;13.10;99.90;;;;;;5104501;28;20036;-86
2022/09/11 04:21:26;;;;;;;4.22;1.23;;;13.20;99.90;;;;;;5100423;28;20028;-86
2022/09/11 04:24:02;;;;;;;4.13;1.15;;;13.30;99.90;;;;;;5093424;28;20047;-85
2022/09/11 04:26:31;;;;;;;2.97;1.27;;;13.40;99.90;;;;;;5091661;28;20651;-87
2022/09/11 04:28:58;;;;;;;5.20;0.93;;;13.50;99.90;;;;;;5095424;28;20023;-85
2022/09/11 04:31:26;;;;;;;2.53;0.70;;;13.50;99.90;;;;;;5109739;28;20028;-85
2022/09/11 04:33:53;;;;;;;4.00;1.10;;;13.50;99.90;;;;;;5108440;28;20403;-86
2022/09/11 04:36:20;;;;;;;3.30;0.90;;;13.50;99.90;;;;;;5107546;28;20027;-86
2022/09/11 04:38:46;;;;;;;1.80;0.60;;;13.50;99.90;;;;;;5088424;28;20052;-85
2022/09/11 04:41:13;;;;;;;1.90;0.65;;;13.60;99.90;;;;;;5087710;28;20024;-84
2022/09/11 04:43:40;;;;;;;1.75;0.70;;;13.60;99.90;;;;;;5087698;28;20039;-85
2022/09/11 04:46:10;;;;;;;4.80;1.00;;;13.70;99.90;;;;;;5103592;28;20198;-86
2022/09/11 04:48:38;;;;;;;6.53;0.73;;;13.70;99.90;;;;;;5109555;28;20129;-86
2022/09/11 04:51:06;;;;;;;2.15;0.50;;;13.80;99.90;;;;;;5109775;28;20026;-84
2022/09/11 04:53:32;;;;;;;5.60;0.93;;;13.80;99.90;;;;;;5109024;28;20043;-85
2022/09/11 04:56:06;;;;;;;4.05;0.70;;;14.00;99.90;;;;;;5109255;28;20560;-85
2022/09/11 04:58:33;;;;;;;2.42;0.50;;;14.30;99.90;;;;;;5109830;28;20093;-83
2022/09/11 05:00:58;;;;;;;1.58;0.40;;;14.40;99.90;;;;;;5104365;28;20028;-86
2022/09/11 05:03:24;;;;;;;;;;;14.50;99.90;;;;;;5086730;28;20578;-86
2022/09/11 05:05:50;;;;;;;2.53;0.40;;;14.70;99.90;;;;;;5088564;28;19961;-86
2022/09/11 05:08:17;;;;;;;;;;;14.90;99.90;;;;;;5088305;28;20089;-86
2022/09/11 05:10:43;;;;;;;1.95;0.40;;;15.00;99.90;;;;;;5088984;28;19974;-86
2022/09/11 05:13:10;;;;;;;4.70;0.50;;;15.20;99.90;;;;;;5090328;28;20571;-86
2022/09/11 05:15:36;;;;;;;2.25;0.40;;;15.30;99.90;;;;;;5088280;28;20047;-86
2022/09/11 05:18:03;;;;;;;1.88;0.38;;;15.40;99.90;;;;;;5103602;28;20024;-86
2022/09/11 05:20:29;;;;;;;2.58;0.88;;;15.50;99.90;;;;;;5109507;28;20051;-86
2022/09/11 05:22:57;;;;;;;3.15;0.40;;;15.60;99.90;;;;;;5109212;28;20019;-85
2022/09/11 05:25:24;;;;;;;3.13;0.40;;;15.70;99.90;;;;;;5108445;28;20488;-84
2022/09/11 05:27:50;;;;;;;3.42;0.40;;;15.90;99.90;;;;;;5109668;28;20024;-85
2022/09/11 05:30:16;;;;;;;1.80;0.30;;;16.40;99.90;;;;;;5110657;28;20726;-85
2022/09/11 05:32:42;;;;;;;3.78;0.30;;;16.90;99.90;;;;;;5109437;28;20507;-84
2022/09/11 05:35:07;;;;;;;0.80;0.20;;;17.40;99.90;;;;;;5109114;28;20122;-84
2022/09/11 05:37:33;;;;;;;2.30;0.60;;;17.60;99.90;;;;;;5109235;28;20388;-84
2022/09/11 05:39:59;;;;;;;5.05;0.40;;;17.80;99.90;;;;;;5108802;28;20408;-85
2022/09/11 05:42:27;;;;;;;1.75;0.38;;;17.90;99.90;;;;;;5109608;28;20020;-85
2022/09/11 05:44:53;;;;;;;1.52;0.30;;;18.10;99.90;;;;;;5108925;28;20110;-84
2022/09/11 05:47:19;;;;;;;0.70;0.30;;;18.20;99.90;;;;;;5109112;28;20102;-84
2022/09/11 05:49:44;;;;;;;0.85;0.43;;;18.30;99.90;;;;;;5109526;28;20385;-83
2022/09/11 05:52:10;;;;;;;1.88;0.30;;;18.50;99.90;;;;;;5107978;28;20024;-84
2022/09/11 05:54:36;;;;;;;0.50;0.30;;;18.60;99.90;;;;;;5086591;28;20043;-82
2022/09/11 05:57:01;;;;;;;5.75;0.40;;;18.60;99.90;;;;;;5087535;28;20031;-84
2022/09/11 05:59:27;;;;;;;0.55;0.20;;;18.60;99.90;;;;;;5088370;28;20020;-84
2022/09/11 06:01:53;;;;;;;1.48;0.30;;;18.60;99.90;;;;;;5102880;28;20099;-83
2022/09/11 06:04:18;;;;;;;0.60;0.20;;;18.70;99.90;;;;;;5111395;28;20491;-85
2022/09/11 06:06:46;;;;;;;1.15;0.40;;;18.70;99.90;;;;;;5109687;28;20023;-85
2022/09/11 06:09:12;;;;;;;0.77;0.30;;;18.70;99.90;;;;;;5111843;28;20570;-84
2022/09/11 06:11:38;;;;;;;2.08;0.20;;;18.70;99.90;;;;;;5112696;28;20116;-85
2022/09/11 06:14:04;;;;;;;2.17;0.20;;;18.80;99.90;;;;;;5112499;28;20081;-85
2022/09/11 06:16:30;;;;;;;1.63;0.30;;;18.80;99.90;;;;;;5112885;28;20107;-85
2022/09/11 06:18:56;;;;;;;2.70;0.40;;;18.80;99.90;;;;;;5112216;28;20053;-85
2022/09/11 06:21:23;;;;;;;2.33;0.38;;;18.80;99.90;;;;;;5110797;28;20027;-81
2022/09/11 06:23:51;;;;;;;2.20;0.40;;;18.90;99.90;;;;;;5109742;28;20066;-84
2022/09/11 06:26:22;;;;;;;1.58;0.30;;;18.90;99.90;;;;;;5109374;28;20035;-81
2022/09/11 06:28:48;;;;;;;0.68;0.30;;;19.00;99.90;;;;;;5108218;28;20031;-85
2022/09/11 06:31:16;;;;;;;1.98;0.40;;;19.00;99.90;;;;;;5092261;28;20028;-85
2022/09/11 06:33:42;;;;;;;0.55;0.28;;;19.10;99.90;;;;;;5092144;28;20024;-83
2022/09/11 06:36:14;;;;;;;1.42;0.30;;;19.10;99.90;;;;;;5091306;28;20032;-85
2022/09/11 06:38:40;;;;;;;0.57;0.25;;;19.00;99.90;;;;;;5109109;28;20024;-85
2022/09/11 06:41:10;;;;;;;5.18;0.30;;;19.00;99.90;;;;;;5112983;28;20036;-85
2022/09/11 06:43:36;;;;;;;1.92;0.28;;;19.00;99.90;;;;;;5110729;28;20118;-84
2022/09/11 06:46:05;;;;;;;1.40;0.32;;;19.10;99.90;;;;;;5113242;28;20719;-86
2022/09/11 06:48:31;;;;;;;1.88;0.40;;;19.10;99.90;;;;;;5112346;28;20016;-87
2022/09/11 06:51:05;;;;;;;1.98;0.30;;;19.10;99.90;;;;;;5111712;28;20028;-85
2022/09/11 06:53:31;;;;;;;1.58;0.50;;;19.10;99.90;;;;;;5112451;28;20051;-85
2022/09/11 06:56:05;;;;;;;1.95;0.40;;;19.10;99.90;;;;;;5113206;28;20054;-84
2022/09/11 06:58:31;;;;;;;1.15;0.40;;;19.20;99.90;;;;;;5095778;28;20024;-86
2022/09/11 07:01:09;;;;;;;3.13;0.45;;;19.20;99.90;;;;;;5091539;28;20032;-87
2022/09/11 07:03:36;;;;;;;1.58;1.15;;;19.20;99.90;;;;;;5091071;28;20016;-88
2022/09/11 07:06:02;;;;;;;1.90;0.22;;;19.20;99.90;;;;;;5104084;28;20028;-87
2022/09/11 07:08:28;;;;;;;0.82;0.38;;;19.20;99.90;;;;;;5112115;28;20023;-87
2022/09/11 07:10:54;;;;;;;2.58;0.50;;;19.20;99.90;;;;;;5112374;28;20053;-87
2022/09/11 07:13:23;;;;;;;1.95;0.90;;;19.20;99.90;;;;;;5110702;28;20032;-85
2022/09/11 07:15:49;;;;;;;2.22;0.43;;;19.20;99.90;;;;;;5110933;28;20039;-85
2022/09/11 07:18:14;;;;;;;1.52;0.50;;;19.20;99.90;;;;;;5107068;28;20103;-86
2022/09/11 07:20:40;;;;;;;1.30;0.50;;;19.30;99.90;;;;;;5091260;28;20032;-85
2022/09/11 07:23:09;;;;;;;1.50;0.32;;;19.30;99.90;;;;;;5112275;28;20054;-88
2022/09/11 07:25:39;;;;;;;0.88;0.35;;;19.50;99.90;;;;;;5112844;28;20070;-86
2022/09/11 07:28:04;;;;;;;2.55;0.45;;;19.70;99.90;;;;;;5112373;28;20020;-88
2022/09/11 07:30:31;;;;;;;1.48;0.30;;;20.00;99.90;;;;;;5112814;28;20133;-89
2022/09/11 07:32:57;;;;;;;2.33;0.40;;;20.20;99.90;;;;;;5113209;28;20023;-86
2022/09/11 07:35:22;;;;;;;1.58;0.47;;;20.50;99.90;;;;;;5111511;28;20043;-85
2022/09/11 07:37:48;;;;;;;3.65;0.60;;;20.60;99.90;;;;;;5107714;28;20150;-85
2022/09/11 07:40:15;;;;;;;1.88;0.50;;;20.70;99.90;;;;;;5091179;28;20034;-86
2022/09/11 07:42:41;;;;;;;2.65;0.68;;;20.90;99.90;;;;;;5108307;28;20051;-87
2022/09/11 07:45:07;;;;;;;2.92;0.45;;;21.00;99.90;;;;;;5097586;28;20024;-85
2022/09/11 07:47:33;;;;;;;1.55;0.50;;;21.20;99.90;;;;;;5110438;28;20081;-84
2022/09/11 07:49:59;;;;;;;4.53;0.73;;;21.10;99.90;;;;;;5120506;28;20065;-86
2022/09/11 07:52:25;;;;;;;1.80;0.38;;;21.10;99.90;;;;;;5130839;28;20023;-84
2022/09/11 07:54:51;;;;;;;1.50;0.43;;;21.00;99.90;;;;;;5128575;28;20047;-85
2022/09/11 07:57:18;;;;;;;1.35;0.40;;;20.80;99.90;;;;;;5111988;28;20023;-84
2022/09/11 07:59:45;;;;;;;2.50;0.35;;;20.80;99.90;;;;;;5111429;28;20058;-86
2022/09/11 08:02:11;;;;;;;0.68;0.28;;;21.10;99.90;;;;;;5107168;28;20068;-84
2022/09/11 08:04:36;;;;;;;3.70;0.60;;;21.30;99.90;;;;;;5105076;28;20070;-84
2022/09/11 08:07:02;;;;;;;0.95;0.35;;;21.90;99.90;;;;;;5089670;28;20031;-85
2022/09/11 08:09:28;;;;;;;2.58;0.60;;;23.20;99.90;;;;;;5095740;28;20050;-83
2022/09/11 08:11:57;;;;;;;2.60;0.63;;;24.70;99.90;;;;;;5108607;28;20024;-84
2022/09/11 08:14:24;;;;;;;3.83;0.50;;;25.90;98.40;;;;;;5108497;28;20035;-82
2022/09/11 08:16:50;;;;;;;2.42;0.30;;;27.00;95.70;;;;;;5108008;28;20039;-84
2022/09/11 08:19:21;;;;;;;2.78;0.50;;;27.60;93.70;;;;;;5108933;28;20019;-83
2022/09/11 08:21:47;;;;;;;1.30;0.40;;;28.20;91.20;;;;;;5102076;28;20032;-82
2022/09/11 08:24:15;;;;;;;0.63;0.40;;;28.60;90.10;;;;;;5088927;28;20072;-84
2022/09/11 08:26:41;;;;;;;2.47;0.40;;;28.90;84.50;;;;;;5087624;28;20095;-83
2022/09/11 08:29:07;;;;;;;2.22;0.40;;;28.90;81.60;;;;;;5088163;28;20430;-83
2022/09/11 08:31:34;;;;;;;2.45;0.40;;;28.80;79.20;;;;;;5086553;28;20024;-84
2022/09/11 08:33:59;;;;;;;0.65;0.30;;;28.50;79.60;;;;;;5090026;28;20024;-86
2022/09/11 08:36:26;;;;;;;2.50;0.40;;;28.40;79.50;;;;;;5088565;28;20032;-85
2022/09/11 08:38:52;;;;;;;1.08;0.40;;;28.60;81.20;;;;;;5089303;28;20103;-87
2022/09/11 08:41:46;;;;;;;2.17;0.60;;;28.90;79.50;;;;;;5089110;28;20028;-86
2022/09/11 08:44:17;;;;;;;1.30;0.40;;;29.20;76.80;;;;;;5088155;28;20032;-83
2022/09/11 08:47:07;;;;;;;2.63;0.40;;;29.40;73.30;;;;;;5109170;28;20019;-86
2022/09/11 08:49:42;;;;;;;0.60;0.40;;;29.80;70.20;;;;;;5108584;28;20035;-85
2022/09/11 08:52:11;;;;;;;3.70;0.63;;;29.90;68.80;;;;;;5108597;28;20031;-83
2022/09/11 08:54:39;;;;;;;2.65;0.60;;;30.10;69.50;;;;;;5109699;28;20142;-84
2022/09/11 08:57:07;;;;;;;3.78;0.40;;;30.30;67.60;;;;;;5110129;28;20055;-85
2022/09/11 08:59:43;;;;;;;3.00;0.60;;;30.40;65.50;;;;;;5106598;28;20028;-86
2022/09/11 09:02:24;;;;;;;1.02;0.38;;;30.30;64.40;;;;;;5108928;28;20163;-87
2022/09/11 09:05:02;;;;;;;1.25;0.30;;;30.20;63.90;;;;;;5109521;28;20059;-87
2022/09/11 09:07:47;;;;;;;1.63;0.30;;;30.10;63.20;;;;;;5110698;28;20532;-87
2022/09/11 09:10:47;;;;;;;1.35;0.32;;;29.80;63.20;;;;;;5095520;28;20431;-86
2022/09/11 09:13:36;;;;;;;1.85;0.40;;;29.60;63.40;;;;;;5090762;28;20024;-87
2022/09/11 09:16:08;;;;;;;2.15;0.50;;;29.20;64.50;;;;;;5091367;28;20047;-87
2022/09/11 09:18:49;;;;;;;0.75;0.30;;;29.00;64.50;;;;;;5089210;28;20024;-86
2022/09/11 09:21:34;;;;;;;0.90;0.30;;;29.00;65.80;;;;;;5095585;28;20059;-87
2022/09/11 09:24:04;;;;;;;0.80;0.30;;;29.20;64.40;;;;;;5096148;28;20020;-87
2022/09/11 09:26:38;;;;;;;1.15;0.30;;;29.10;65.00;;;;;;5090474;28;20035;-88
2022/09/11 09:29:08;;;;;;;0.90;0.75;;;29.00;65.30;;;;;;5097045;28;20028;-87
2022/09/11 09:31:37;;;;;;;3.80;0.40;;;29.00;65.00;;;;;;5105406;28;20119;-86
2022/09/11 09:34:19;;;;;;;4.25;0.40;;;29.30;65.60;;;;;;5089867;28;20032;-87
2022/09/11 09:36:48;;;;;;;2.22;0.50;;;29.70;65.00;;;;;;5088954;28;20075;-88
2022/09/11 09:39:16;;;;;;;1.25;0.47;;;30.20;64.60;;;;;;5089370;28;20028;-85
2022/09/11 09:41:59;;;;;;;1.95;0.38;;;30.40;62.30;;;;;;5100976;28;20664;-84
2022/09/11 09:44:31;;;;;;;0.75;0.40;;;30.50;63.50;;;;;;5113221;28;20023;-88
2022/09/11 09:46:58;;;;;;;1.80;0.40;;;30.60;63.00;;;;;;5093521;28;20086;-87
2022/09/11 09:49:28;;;;;;;2.10;0.50;;;30.80;62.70;;;;;;5093018;28;20448;-87
2022/09/11 09:51:57;;;;;;;2.38;0.43;;;31.00;61.80;;;;;;5093269;28;20070;-86
2022/09/11 09:54:27;;;;;;;1.88;0.30;;;31.00;61.10;;;;;;5093172;28;20416;-83
2022/09/11 09:57:01;;;;;;;1.48;0.43;;;30.80;61.50;;;;;;5093173;28;20028;-84
2022/09/11 09:59:49;;;;;;;4.03;0.40;;;31.10;61.80;;;;;;5093018;28;20480;-83
2022/09/11 10:02:40;;;;;;;2.38;0.40;;;31.40;60.30;;;;;;5108110;28;20036;-85
2022/09/11 10:05:19;;;;;;;1.70;0.35;;;31.40;60.20;;;;;;5112461;28;20093;-84
2022/09/11 10:07:51;;;;;;;7.18;0.50;;;31.30;60.20;;;;;;5111666;28;20023;-86
2022/09/11 10:10:27;;;;;;;3.47;0.40;;;31.30;60.30;;;;;;5097702;28;20028;-84
2022/09/11 10:12:55;;;;;;;2.70;0.30;;;31.40;59.40;;;;;;5093026;28;20081;-85
2022/09/11 10:15:24;;;;;;;5.68;0.60;;;31.00;59.80;;;;;;5093786;28;20066;-85
2022/09/11 10:17:52;;;;;;;1.67;0.55;;;29.90;60.10;;;;;;5107431;28;20012;-85
2022/09/11 10:20:17;;;;;;;1.15;0.32;;;28.90;62.30;;;;;;5113170;28;20383;-87
2022/09/11 10:22:46;;;;;;;2.13;0.40;;;27.90;63.50;;;;;;5103587;28;20472;-87
2022/09/11 10:25:18;;;;;;;4.25;0.40;;;27.20;65.50;;;;;;5093020;28;20507;-86
2022/09/11 10:27:44;;;;;;;0.85;0.35;;;26.60;66.80;;;;;;5094087;28;20049;-86
2022/09/11 10:30:33;;;;;;;0.60;0.30;;;26.20;68.20;;;;;;5092004;28;20036;-86
2022/09/11 10:33:01;;;;;;;1.77;0.40;;;26.10;68.80;;;;;;5087138;28;20028;-87
2022/09/11 10:35:29;;;;;;;0.77;0.30;;;25.90;69.80;;;;;;5092396;28;20043;-85
2022/09/11 10:38:19;;;;;;;1.23;0.40;;;25.40;70.10;;;;;;5092202;28;20024;-85
2022/09/11 10:41:06;;;;;;;1.27;0.30;;;25.20;71.90;;;;;;5086256;28;20025;-86
2022/09/11 10:43:52;;;;;;;1.27;0.38;;;25.00;73.00;;;;;;5092157;28;20036;-85
2022/09/11 10:46:31;;;;;;;2.90;0.43;;;24.90;72.90;;;;;;5092239;28;20077;-86
2022/09/11 10:49:05;;;;;;;0.77;0.20;;;24.90;73.80;;;;;;5093144;28;20452;-86
2022/09/11 10:51:37;;;;;;;3.92;0.40;;;24.70;73.30;;;;;;5091516;28;20031;-86
2022/09/11 10:54:15;;;;;;;1.40;0.30;;;24.60;75.00;;;;;;5091459;28;20505;-87
2022/09/11 10:57:19;;;;;;;3.40;0.40;;;24.60;75.40;;;;;;5091062;28;20032;-86
2022/09/11 11:00:07;;;;;;;1.08;0.30;;;24.50;76.00;;;;;;5091019;28;20036;-87
2022/09/11 11:02:36;;;;;;;1.70;0.30;;;24.50;76.10;;;;;;5093117;28;20024;-86
2022/09/11 11:05:10;;;;;;;1.40;0.40;;;24.40;75.90;;;;;;5090365;28;20024;-86
2022/09/11 11:08:10;;;;;;;4.05;0.30;;;24.30;76.50;;;;;;5093395;28;20024;-86
2022/09/11 11:10:50;;;;;;;1.02;0.30;;;24.30;77.40;;;;;;5093086;28;20032;-87
2022/09/11 11:13:29;;;;;;;0.75;0.22;;;24.40;76.90;;;;;;5091910;28;20157;-85
2022/09/11 11:16:31;;;;;;;1.65;0.40;;;24.60;76.90;;;;;;5090976;28;20086;-86
2022/09/11 11:19:37;;;;;;;4.38;0.40;;;24.80;76.30;;;;;;5091259;28;20031;-85
2022/09/11 11:22:27;;;;;;;0.65;0.20;;;24.90;75.40;;;;;;5091647;28;20093;-87
2022/09/11 11:25:02;;;;;;;0.30;0.20;;;24.90;75.60;;;;;;5101761;28;20125;-86
2022/09/11 11:27:41;;;;;;;1.33;0.40;;;25.00;73.90;;;;;;5102045;28;20100;-87
2022/09/11 11:30:18;;;;;;;0.47;0.20;;;24.90;75.50;;;;;;5093969;28;20028;-87
2022/09/11 11:33:04;;;;;;;3.50;0.40;;;24.80;74.30;;;;;;5093465;28;20031;-86
2022/09/11 11:35:39;;;;;;;;;;;24.80;74.70;;;;;;5112257;28;20035;-86
2022/09/11 11:38:29;;;;;;;1.40;0.20;;;24.80;74.10;;;;;;5112715;28;19904;-87
2022/09/11 11:41:21;;;;;;;4.50;0.85;;;24.80;75.20;;;;;;5111316;28;20376;-85
2022/09/11 11:43:48;;;;;;;4.53;0.30;;;24.70;76.60;;;;;;5103265;28;20039;-88
2022/09/11 11:46:17;;;;;;;1.45;0.40;;;24.70;77.50;;;;;;5110143;28;20058;-87
2022/09/11 11:48:51;;;;;;;0.98;0.28;;;24.60;78.10;;;;;;5109766;28;20031;-86
2022/09/11 11:51:19;;;;;;;0.75;0.30;;;24.50;78.20;;;;;;5107655;28;20032;-86
2022/09/11 11:54:09;;;;;;;1.30;0.32;;;24.50;78.90;;;;;;5108622;28;20054;-85
2022/09/11 11:57:10;;;;;;;0.82;0.30;;;24.60;78.50;;;;;;5108657;28;20046;-85
2022/09/11 12:00:09;;;;;;;0.57;0.20;;;24.60;77.90;;;;;;5096571;28;20069;-85
2022/09/11 12:02:50;;;;;;;0.90;0.38;;;24.70;78.00;;;;;;5104632;28;20046;-86
2022/09/11 12:05:23;;;;;;;5.03;0.30;;;24.70;77.20;;;;;;5099891;28;20025;-85
2022/09/11 12:07:50;;;;;;;1.40;0.30;;;24.80;78.10;;;;;;5088425;28;20020;-86
2022/09/11 12:10:44;;;;;;;1.13;0.30;;;24.90;78.00;;;;;;5087548;28;20059;-85
2022/09/11 12:13:19;;;;;;;1.58;0.40;;;24.90;78.30;;;;;;5071330;28;20046;-86
2022/09/11 12:15:57;;;;;;;1.55;0.30;;;25.00;79.90;;;;;;5109950;28;20122;-86
2022/09/11 12:18:24;;;;;;;1.20;0.32;;;25.00;78.40;;;;;;5110636;28;20016;-85
2022/09/11 12:20:50;;;;;;;1.55;0.32;;;25.20;78.10;;;;;;5106890;28;20539;-87
2022/09/11 12:23:57;;;;;;;1.95;0.40;;;25.30;78.50;;;;;;5090288;28;20054;-87
2022/09/11 12:26:29;;;;;;;1.00;0.30;;;25.50;77.40;;;;;;5091649;28;20031;-86
2022/09/11 12:29:18;;;;;;;2.22;0.40;;;25.50;77.80;;;;;;5093909;28;20058;-85
2022/09/11 12:31:50;;;;;;;1.48;0.20;;;25.50;79.00;;;;;;5109815;28;20391;-86
2022/09/11 12:34:38;;;;;;;1.20;0.30;;;25.40;78.50;;;;;;5109972;28;20028;-87
2022/09/11 12:37:11;;;;;;;2.30;0.30;;;25.20;77.50;;;;;;5110292;28;20023;-87
2022/09/11 12:40:00;;;;;;;0.82;0.30;;;24.90;76.70;;;;;;5089825;28;20101;-87
2022/09/11 12:42:28;;;;;;;0.32;0.30;;;24.60;77.20;;;;;;5087603;28;20027;-86
2022/09/11 12:45:03;;;;;;;0.82;0.28;;;24.20;78.90;;;;;;5096401;28;20616;-87
2022/09/11 12:47:33;;;;;;;1.05;0.10;;;23.70;78.30;;;;;;5101798;28;20058;-86
2022/09/11 12:50:11;;;;;;;1.35;0.40;;;23.30;80.90;;;;;;5096440;28;21520;-87
2022/09/11 12:52:51;;;;;;;0.38;0.20;;;23.00;84.20;;;;;;5104927;28;20031;-87
2022/09/11 12:55:55;;;;;;;0.85;0.30;;;22.80;87.30;;;;;;5071257;28;20036;-86
2022/09/11 12:58:42;;;;;;;0.93;0.20;;;22.70;87.90;;;;;;5063583;28;20032;-87
2022/09/11 13:01:14;;;;;;;;;;;22.50;88.80;;;;;;5072292;28;20028;-87
2022/09/11 13:04:00;;;;;;;0.85;0.20;;;22.40;90.10;;;;;;5077361;28;19912;-87
2022/09/11 13:06:39;;;;;;;2.45;0.95;;;22.30;90.50;;;;;;5070040;28;20622;-86
2022/09/11 13:09:06;;;;;;;2.92;0.30;;;22.20;90.40;;;;;;5069734;28;20334;-87
2022/09/11 13:11:42;;;;;;;3.22;1.15;;;22.20;90.50;;;;;;5069675;28;20032;-87
2022/09/11 13:14:26;;;;;;;3.42;0.50;;;22.20;91.20;;;;;;5069050;28;20027;-86
2022/09/11 13:16:56;;;;;;;2.00;0.63;;;22.30;91.80;;;;;;5084125;28;20035;-87
2022/09/11 13:19:30;;;;;;;0.30;0.20;;;22.50;92.60;;;;;;5088617;28;20111;-86